sensor_id;sensor_type;location;lat;lon;timestamp;P1;durP1;ratioP1;P2;durP2;ratioP2
14817;SDS011;7500;57.698;11.986;2023-03-23T00:02:55;32.47;;;5.17;;
14817;SDS011;7500;57.698;11.986;2023-03-23T00:06:22;31.20;;;4.70;;
14817;SDS011;7500;57.698;11.986;2023-03-23T00:09:52;32.77;;;5.67;;
14817;SDS011;7500;57.698;11.986;2023-03-23T00:13:21;23.90;;;4.87;;
14817;SDS011;7500;57.698;11.986;2023-03-23T00:16:49;32.53;;;5.43;;
14817;SDS011;7500;57.698;11.986;2023-03-23T00:20:15;27.50;;;5.10;;
14817;SDS011;7500;57.698;11.986;2023-03-23T00:23:40;39.53;;;5.60;;
14817;SDS011;7500;57.698;11.986;2023-03-23T00:27:05;30.03;;;4.67;;
14817;SDS011;7500;57.698;11.986;2023-03-23T00:30:31;25.23;;;4.93;;
14817;SDS011;7500;57.698;11.986;2023-03-23T00:33:59;27.53;;;5.30;;
14817;SDS011;7500;57.698;11.986;2023-03-23T00:37:25;30.17;;;5.07;;
14817;SDS011;7500;57.698;11.986;2023-03-23T00:40:51;24.63;;;5.27;;
14817;SDS011;7500;57.698;11.986;2023-03-23T00:44:16;30.17;;;5.57;;
14817;SDS011;7500;57.698;11.986;2023-03-23T00:47:42;28.60;;;5.03;;
14817;SDS011;7500;57.698;11.986;2023-03-23T00:51:11;24.17;;;4.83;;
14817;SDS011;7500;57.698;11.986;2023-03-23T00:54:37;25.30;;;5.23;;
14817;SDS011;7500;57.698;11.986;2023-03-23T00:58:02;24.77;;;5.00;;
14817;SDS011;7500;57.698;11.986;2023-03-23T01:01:28;27.87;;;6.20;;
14817;SDS011;7500;57.698;11.986;2023-03-23T01:04:53;28.93;;;5.20;;
14817;SDS011;7500;57.698;11.986;2023-03-23T01:08:21;31.50;;;6.97;;
14817;SDS011;7500;57.698;11.986;2023-03-23T01:11:48;28.93;;;5.50;;
14817;SDS011;7500;57.698;11.986;2023-03-23T01:15:14;32.03;;;6.00;;
14817;SDS011;7500;57.698;11.986;2023-03-23T01:18:40;27.67;;;5.43;;
14817;SDS011;7500;57.698;11.986;2023-03-23T01:22:07;32.37;;;6.47;;
14817;SDS011;7500;57.698;11.986;2023-03-23T01:25:35;26.97;;;4.73;;
14817;SDS011;7500;57.698;11.986;2023-03-23T01:29:00;35.33;;;5.37;;
14817;SDS011;7500;57.698;11.986;2023-03-23T01:32:26;29.97;;;5.80;;
14817;SDS011;7500;57.698;11.986;2023-03-23T01:35:51;28.47;;;5.20;;
14817;SDS011;7500;57.698;11.986;2023-03-23T01:39:16;26.17;;;5.43;;
14817;SDS011;7500;57.698;11.986;2023-03-23T01:42:43;32.63;;;5.70;;
14817;SDS011;7500;57.698;11.986;2023-03-23T01:46:22;25.07;;;5.03;;
14817;SDS011;7500;57.698;11.986;2023-03-23T01:49:51;29.37;;;5.73;;
14817;SDS011;7500;57.698;11.986;2023-03-23T01:53:20;21.57;;;4.93;;
14817;SDS011;7500;57.698;11.986;2023-03-23T01:56:49;28.30;;;5.77;;
14817;SDS011;7500;57.698;11.986;2023-03-23T02:00:17;29.47;;;5.17;;
14817;SDS011;7500;57.698;11.986;2023-03-23T02:03:44;27.67;;;4.53;;
14817;SDS011;7500;57.698;11.986;2023-03-23T02:07:11;31.27;;;4.97;;
14817;SDS011;7500;57.698;11.986;2023-03-23T02:10:39;28.67;;;5.37;;
14817;SDS011;7500;57.698;11.986;2023-03-23T02:14:05;24.50;;;4.53;;
14817;SDS011;7500;57.698;11.986;2023-03-23T02:17:33;19.83;;;4.87;;
14817;SDS011;7500;57.698;11.986;2023-03-23T02:21:12;26.57;;;4.57;;
14817;SDS011;7500;57.698;11.986;2023-03-23T02:25:10;25.30;;;4.50;;
14817;SDS011;7500;57.698;11.986;2023-03-23T02:29:03;20.13;;;4.43;;
14817;SDS011;7500;57.698;11.986;2023-03-23T02:32:52;25.07;;;4.33;;
14817;SDS011;7500;57.698;11.986;2023-03-23T02:36:26;21.23;;;4.80;;
14817;SDS011;7500;57.698;11.986;2023-03-23T02:39:57;26.83;;;5.00;;
14817;SDS011;7500;57.698;11.986;2023-03-23T02:43:27;26.63;;;5.03;;
14817;SDS011;7500;57.698;11.986;2023-03-23T02:46:56;23.50;;;4.97;;
14817;SDS011;7500;57.698;11.986;2023-03-23T02:50:24;26.67;;;4.83;;
14817;SDS011;7500;57.698;11.986;2023-03-23T02:53:51;25.80;;;4.77;;
14817;SDS011;7500;57.698;11.986;2023-03-23T02:57:18;22.63;;;4.43;;
14817;SDS011;7500;57.698;11.986;2023-03-23T03:00:45;20.47;;;4.67;;
14817;SDS011;7500;57.698;11.986;2023-03-23T03:04:26;26.90;;;5.00;;
14817;SDS011;7500;57.698;11.986;2023-03-23T03:08:06;27.73;;;5.23;;
14817;SDS011;7500;57.698;11.986;2023-03-23T03:11:36;22.47;;;5.13;;
14817;SDS011;7500;57.698;11.986;2023-03-23T03:15:12;17.57;;;4.63;;
14817;SDS011;7500;57.698;11.986;2023-03-23T03:18:46;19.87;;;4.60;;
14817;SDS011;7500;57.698;11.986;2023-03-23T03:22:16;19.40;;;5.20;;
14817;SDS011;7500;57.698;11.986;2023-03-23T03:25:43;21.97;;;5.10;;
14817;SDS011;7500;57.698;11.986;2023-03-23T03:29:13;21.53;;;5.10;;
14817;SDS011;7500;57.698;11.986;2023-03-23T03:32:41;27.63;;;5.90;;
14817;SDS011;7500;57.698;11.986;2023-03-23T03:36:08;20.47;;;4.93;;
14817;SDS011;7500;57.698;11.986;2023-03-23T03:39:41;24.60;;;5.40;;
14817;SDS011;7500;57.698;11.986;2023-03-23T03:43:06;19.60;;;4.90;;
14817;SDS011;7500;57.698;11.986;2023-03-23T03:46:32;18.87;;;4.57;;
14817;SDS011;7500;57.698;11.986;2023-03-23T03:49:58;17.87;;;5.10;;
14817;SDS011;7500;57.698;11.986;2023-03-23T03:53:25;17.13;;;4.70;;
14817;SDS011;7500;57.698;11.986;2023-03-23T03:56:52;21.10;;;5.40;;
14817;SDS011;7500;57.698;11.986;2023-03-23T04:00:18;18.30;;;4.70;;
14817;SDS011;7500;57.698;11.986;2023-03-23T04:03:46;21.30;;;4.87;;
14817;SDS011;7500;57.698;11.986;2023-03-23T04:07:12;19.07;;;5.53;;
14817;SDS011;7500;57.698;11.986;2023-03-23T04:10:39;17.30;;;4.73;;
14817;SDS011;7500;57.698;11.986;2023-03-23T04:14:06;17.90;;;4.70;;
14817;SDS011;7500;57.698;11.986;2023-03-23T04:17:32;16.57;;;4.73;;
14817;SDS011;7500;57.698;11.986;2023-03-23T04:20:59;18.70;;;5.47;;
14817;SDS011;7500;57.698;11.986;2023-03-23T04:24:24;17.20;;;5.07;;
14817;SDS011;7500;57.698;11.986;2023-03-23T04:27:50;24.60;;;5.57;;
14817;SDS011;7500;57.698;11.986;2023-03-23T04:31:18;19.50;;;5.10;;
14817;SDS011;7500;57.698;11.986;2023-03-23T04:34:43;19.03;;;4.53;;
14817;SDS011;7500;57.698;11.986;2023-03-23T04:38:10;17.83;;;4.63;;
14817;SDS011;7500;57.698;11.986;2023-03-23T04:41:36;20.33;;;5.03;;
14817;SDS011;7500;57.698;11.986;2023-03-23T04:45:03;15.30;;;4.97;;
14817;SDS011;7500;57.698;11.986;2023-03-23T04:48:35;13.50;;;5.50;;
14817;SDS011;7500;57.698;11.986;2023-03-23T04:52:01;18.37;;;5.20;;
14817;SDS011;7500;57.698;11.986;2023-03-23T04:55:29;14.27;;;4.50;;
14817;SDS011;7500;57.698;11.986;2023-03-23T04:58:55;18.60;;;5.70;;
14817;SDS011;7500;57.698;11.986;2023-03-23T05:02:20;13.30;;;5.10;;
14817;SDS011;7500;57.698;11.986;2023-03-23T05:05:47;14.43;;;4.93;;
14817;SDS011;7500;57.698;11.986;2023-03-23T05:09:13;15.10;;;5.13;;
14817;SDS011;7500;57.698;11.986;2023-03-23T05:12:40;15.23;;;5.17;;
14817;SDS011;7500;57.698;11.986;2023-03-23T05:16:06;13.70;;;6.30;;
14817;SDS011;7500;57.698;11.986;2023-03-23T05:19:32;11.70;;;5.60;;
14817;SDS011;7500;57.698;11.986;2023-03-23T05:23:00;12.17;;;5.10;;
14817;SDS011;7500;57.698;11.986;2023-03-23T05:26:26;10.27;;;5.00;;
14817;SDS011;7500;57.698;11.986;2023-03-23T05:29:53;14.33;;;4.80;;
14817;SDS011;7500;57.698;11.986;2023-03-23T05:33:19;10.83;;;4.80;;
14817;SDS011;7500;57.698;11.986;2023-03-23T05:36:44;15.37;;;5.07;;
14817;SDS011;7500;57.698;11.986;2023-03-23T05:40:12;13.13;;;4.97;;
14817;SDS011;7500;57.698;11.986;2023-03-23T05:43:38;11.03;;;4.97;;
14817;SDS011;7500;57.698;11.986;2023-03-23T05:47:03;10.87;;;5.27;;
14817;SDS011;7500;57.698;11.986;2023-03-23T05:50:29;11.33;;;5.80;;
14817;SDS011;7500;57.698;11.986;2023-03-23T05:53:54;11.97;;;5.73;;
14817;SDS011;7500;57.698;11.986;2023-03-23T05:57:21;11.97;;;5.80;;
14817;SDS011;7500;57.698;11.986;2023-03-23T06:00:47;12.53;;;5.40;;
14817;SDS011;7500;57.698;11.986;2023-03-23T06:04:12;13.03;;;5.10;;
14817;SDS011;7500;57.698;11.986;2023-03-23T06:07:38;10.20;;;5.13;;
14817;SDS011;7500;57.698;11.986;2023-03-23T06:11:04;14.50;;;5.37;;
14817;SDS011;7500;57.698;11.986;2023-03-23T06:14:32;12.60;;;5.20;;
14817;SDS011;7500;57.698;11.986;2023-03-23T06:17:57;9.67;;;4.87;;
14817;SDS011;7500;57.698;11.986;2023-03-23T06:21:29;15.67;;;5.90;;
14817;SDS011;7500;57.698;11.986;2023-03-23T06:24:54;11.50;;;5.80;;
14817;SDS011;7500;57.698;11.986;2023-03-23T06:28:20;10.03;;;5.30;;
14817;SDS011;7500;57.698;11.986;2023-03-23T06:31:47;16.57;;;6.33;;
14817;SDS011;7500;57.698;11.986;2023-03-23T06:35:13;14.90;;;6.10;;
14817;SDS011;7500;57.698;11.986;2023-03-23T06:38:39;16.60;;;6.43;;
14817;SDS011;7500;57.698;11.986;2023-03-23T06:42:04;13.87;;;6.13;;
14817;SDS011;7500;57.698;11.986;2023-03-23T06:45:34;13.30;;;5.97;;
14817;SDS011;7500;57.698;11.986;2023-03-23T06:49:01;15.17;;;7.17;;
14817;SDS011;7500;57.698;11.986;2023-03-23T06:52:27;12.50;;;6.60;;
14817;SDS011;7500;57.698;11.986;2023-03-23T06:55:53;17.43;;;7.50;;
14817;SDS011;7500;57.698;11.986;2023-03-23T06:59:18;15.53;;;7.67;;
14817;SDS011;7500;57.698;11.986;2023-03-23T07:02:44;14.93;;;7.30;;
14817;SDS011;7500;57.698;11.986;2023-03-23T07:06:11;18.57;;;8.00;;
14817;SDS011;7500;57.698;11.986;2023-03-23T07:09:39;15.80;;;8.23;;
14817;SDS011;7500;57.698;11.986;2023-03-23T07:13:04;12.40;;;8.07;;
14817;SDS011;7500;57.698;11.986;2023-03-23T07:16:30;18.50;;;9.67;;
14817;SDS011;7500;57.698;11.986;2023-03-23T07:19:56;14.53;;;8.17;;
14817;SDS011;7500;57.698;11.986;2023-03-23T07:23:23;20.23;;;8.30;;
14817;SDS011;7500;57.698;11.986;2023-03-23T07:26:49;14.70;;;8.07;;
14817;SDS011;7500;57.698;11.986;2023-03-23T07:30:14;16.20;;;10.40;;
14817;SDS011;7500;57.698;11.986;2023-03-23T07:33:39;15.57;;;9.40;;
14817;SDS011;7500;57.698;11.986;2023-03-23T07:37:05;14.40;;;8.70;;
14817;SDS011;7500;57.698;11.986;2023-03-23T07:40:33;15.63;;;8.97;;
14817;SDS011;7500;57.698;11.986;2023-03-23T07:43:58;16.00;;;9.57;;
14817;SDS011;7500;57.698;11.986;2023-03-23T07:47:24;14.47;;;8.60;;
14817;SDS011;7500;57.698;11.986;2023-03-23T07:50:49;13.90;;;8.73;;
14817;SDS011;7500;57.698;11.986;2023-03-23T07:54:14;17.00;;;9.37;;
14817;SDS011;7500;57.698;11.986;2023-03-23T07:57:43;15.90;;;8.87;;
14817;SDS011;7500;57.698;11.986;2023-03-23T08:01:10;14.93;;;9.03;;
14817;SDS011;7500;57.698;11.986;2023-03-23T08:04:36;15.47;;;9.57;;
14817;SDS011;7500;57.698;11.986;2023-03-23T08:08:01;13.17;;;9.77;;
14817;SDS011;7500;57.698;11.986;2023-03-23T08:11:28;16.30;;;9.30;;
14817;SDS011;7500;57.698;11.986;2023-03-23T08:14:55;18.60;;;10.10;;
14817;SDS011;7500;57.698;11.986;2023-03-23T08:18:22;13.13;;;9.47;;
14817;SDS011;7500;57.698;11.986;2023-03-23T08:21:47;17.23;;;9.07;;
14817;SDS011;7500;57.698;11.986;2023-03-23T08:25:15;13.93;;;9.03;;
14817;SDS011;7500;57.698;11.986;2023-03-23T08:28:42;11.93;;;8.33;;
14817;SDS011;7500;57.698;11.986;2023-03-23T08:32:12;14.00;;;8.43;;
14817;SDS011;7500;57.698;11.986;2023-03-23T08:35:39;14.80;;;8.47;;
14817;SDS011;7500;57.698;11.986;2023-03-23T08:39:04;13.80;;;8.63;;
14817;SDS011;7500;57.698;11.986;2023-03-23T08:42:34;12.90;;;7.77;;
14817;SDS011;7500;57.698;11.986;2023-03-23T08:46:00;11.53;;;8.07;;
14817;SDS011;7500;57.698;11.986;2023-03-23T08:49:29;9.03;;;7.07;;
14817;SDS011;7500;57.698;11.986;2023-03-23T08:52:56;9.83;;;6.73;;
14817;SDS011;7500;57.698;11.986;2023-03-23T08:56:21;9.50;;;6.40;;
14817;SDS011;7500;57.698;11.986;2023-03-23T08:59:47;10.93;;;7.17;;
14817;SDS011;7500;57.698;11.986;2023-03-23T09:03:12;7.97;;;6.63;;
14817;SDS011;7500;57.698;11.986;2023-03-23T09:06:40;9.83;;;6.67;;
14817;SDS011;7500;57.698;11.986;2023-03-23T09:10:07;9.50;;;7.00;;
14817;SDS011;7500;57.698;11.986;2023-03-23T09:13:34;9.10;;;6.20;;
14817;SDS011;7500;57.698;11.986;2023-03-23T09:17:01;9.90;;;6.43;;
14817;SDS011;7500;57.698;11.986;2023-03-23T09:20:27;13.87;;;7.03;;
14817;SDS011;7500;57.698;11.986;2023-03-23T09:23:55;7.97;;;6.27;;
14817;SDS011;7500;57.698;11.986;2023-03-23T09:27:21;8.93;;;6.37;;
14817;SDS011;7500;57.698;11.986;2023-03-23T09:30:46;8.60;;;6.17;;
14817;SDS011;7500;57.698;11.986;2023-03-23T09:34:12;9.17;;;6.70;;
14817;SDS011;7500;57.698;11.986;2023-03-23T09:37:39;9.40;;;6.80;;
14817;SDS011;7500;57.698;11.986;2023-03-23T09:41:10;13.00;;;8.87;;
14817;SDS011;7500;57.698;11.986;2023-03-23T09:44:49;12.13;;;9.07;;
14817;SDS011;7500;57.698;11.986;2023-03-23T09:48:31;10.80;;;7.57;;
14817;SDS011;7500;57.698;11.986;2023-03-23T09:52:00;11.67;;;8.10;;
14817;SDS011;7500;57.698;11.986;2023-03-23T09:55:29;9.80;;;7.83;;
14817;SDS011;7500;57.698;11.986;2023-03-23T09:58:58;9.27;;;7.40;;
14817;SDS011;7500;57.698;11.986;2023-03-23T10:02:31;10.67;;;8.23;;
14817;SDS011;7500;57.698;11.986;2023-03-23T10:06:00;11.57;;;8.47;;
14817;SDS011;7500;57.698;11.986;2023-03-23T10:09:31;9.77;;;8.07;;
14817;SDS011;7500;57.698;11.986;2023-03-23T10:13:03;13.23;;;8.63;;
14817;SDS011;7500;57.698;11.986;2023-03-23T10:16:37;15.10;;;10.20;;
14817;SDS011;7500;57.698;11.986;2023-03-23T10:20:15;20.33;;;10.60;;
14817;SDS011;7500;57.698;11.986;2023-03-23T10:23:53;16.47;;;10.80;;
14817;SDS011;7500;57.698;11.986;2023-03-23T10:27:26;14.87;;;10.47;;
14817;SDS011;7500;57.698;11.986;2023-03-23T10:31:01;14.87;;;8.43;;
14817;SDS011;7500;57.698;11.986;2023-03-23T10:34:32;13.87;;;8.13;;
14817;SDS011;7500;57.698;11.986;2023-03-23T10:38:03;12.00;;;7.00;;
14817;SDS011;7500;57.698;11.986;2023-03-23T10:41:32;12.47;;;6.10;;
14817;SDS011;7500;57.698;11.986;2023-03-23T10:45:01;8.33;;;5.03;;
14817;SDS011;7500;57.698;11.986;2023-03-23T10:48:43;11.90;;;5.70;;
14817;SDS011;7500;57.698;11.986;2023-03-23T10:52:14;9.57;;;4.97;;
14817;SDS011;7500;57.698;11.986;2023-03-23T10:55:42;7.07;;;4.17;;
14817;SDS011;7500;57.698;11.986;2023-03-23T10:59:13;8.77;;;3.60;;
14817;SDS011;7500;57.698;11.986;2023-03-23T11:02:46;8.37;;;3.93;;
14817;SDS011;7500;57.698;11.986;2023-03-23T11:06:18;7.67;;;2.63;;
14817;SDS011;7500;57.698;11.986;2023-03-23T11:09:54;5.80;;;2.93;;
14817;SDS011;7500;57.698;11.986;2023-03-23T11:13:21;4.13;;;2.27;;
14817;SDS011;7500;57.698;11.986;2023-03-23T11:16:55;3.03;;;2.10;;
14817;SDS011;7500;57.698;11.986;2023-03-23T11:20:22;6.77;;;2.50;;
14817;SDS011;7500;57.698;11.986;2023-03-23T11:23:49;5.27;;;2.60;;
14817;SDS011;7500;57.698;11.986;2023-03-23T11:27:18;9.90;;;2.63;;
14817;SDS011;7500;57.698;11.986;2023-03-23T11:30:44;6.90;;;2.50;;
14817;SDS011;7500;57.698;11.986;2023-03-23T11:34:13;7.40;;;2.50;;
14817;SDS011;7500;57.698;11.986;2023-03-23T11:37:43;3.57;;;1.90;;
14817;SDS011;7500;57.698;11.986;2023-03-23T11:41:10;7.77;;;2.50;;
14817;SDS011;7500;57.698;11.986;2023-03-23T11:44:40;6.73;;;2.30;;
14817;SDS011;7500;57.698;11.986;2023-03-23T11:48:13;5.73;;;2.00;;
14817;SDS011;7500;57.698;11.986;2023-03-23T11:51:47;7.60;;;1.90;;
14817;SDS011;7500;57.698;11.986;2023-03-23T11:55:19;7.00;;;2.10;;
14817;SDS011;7500;57.698;11.986;2023-03-23T11:58:52;5.27;;;1.80;;
14817;SDS011;7500;57.698;11.986;2023-03-23T12:02:28;8.40;;;2.00;;
14817;SDS011;7500;57.698;11.986;2023-03-23T12:06:07;5.83;;;1.80;;
14817;SDS011;7500;57.698;11.986;2023-03-23T12:09:48;4.40;;;2.10;;
14817;SDS011;7500;57.698;11.986;2023-03-23T12:13:26;3.33;;;1.80;;
14817;SDS011;7500;57.698;11.986;2023-03-23T12:17:02;6.37;;;1.70;;
14817;SDS011;7500;57.698;11.986;2023-03-23T12:20:36;2.13;;;1.23;;
14817;SDS011;7500;57.698;11.986;2023-03-23T12:24:12;3.80;;;1.27;;
14817;SDS011;7500;57.698;11.986;2023-03-23T12:28:00;3.23;;;1.00;;
14817;SDS011;7500;57.698;11.986;2023-03-23T12:35:44;3.27;;;1.20;;
14817;SDS011;7500;57.698;11.986;2023-03-23T12:39:39;1.47;;;0.97;;
14817;SDS011;7500;57.698;11.986;2023-03-23T12:43:20;3.60;;;1.40;;
14817;SDS011;7500;57.698;11.986;2023-03-23T12:46:55;2.43;;;1.33;;
14817;SDS011;7500;57.698;11.986;2023-03-23T12:50:26;5.77;;;2.00;;
14817;SDS011;7500;57.698;11.986;2023-03-23T12:53:58;4.80;;;1.93;;
14817;SDS011;7500;57.698;11.986;2023-03-23T12:57:30;4.97;;;1.80;;
14817;SDS011;7500;57.698;11.986;2023-03-23T13:01:00;7.30;;;2.00;;
14817;SDS011;7500;57.698;11.986;2023-03-23T13:04:30;12.43;;;2.40;;
14817;SDS011;7500;57.698;11.986;2023-03-23T13:08:16;23.07;;;3.33;;
14817;SDS011;7500;57.698;11.986;2023-03-23T13:11:47;6.93;;;2.53;;
14817;SDS011;7500;57.698;11.986;2023-03-23T13:15:18;7.73;;;2.73;;
14817;SDS011;7500;57.698;11.986;2023-03-23T13:18:58;8.30;;;2.90;;
14817;SDS011;7500;57.698;11.986;2023-03-23T13:22:46;8.20;;;2.53;;
14817;SDS011;7500;57.698;11.986;2023-03-23T13:26:18;9.77;;;2.73;;
14817;SDS011;7500;57.698;11.986;2023-03-23T13:29:44;14.30;;;3.03;;
14817;SDS011;7500;57.698;11.986;2023-03-23T13:33:20;19.70;;;4.17;;
14817;SDS011;7500;57.698;11.986;2023-03-23T13:36:52;25.50;;;4.00;;
14817;SDS011;7500;57.698;11.986;2023-03-23T13:40:23;17.53;;;3.27;;
14817;SDS011;7500;57.698;11.986;2023-03-23T13:43:52;10.33;;;2.87;;
14817;SDS011;7500;57.698;11.986;2023-03-23T13:47:26;16.57;;;3.00;;
14817;SDS011;7500;57.698;11.986;2023-03-23T13:50:53;14.97;;;3.03;;
14817;SDS011;7500;57.698;11.986;2023-03-23T13:54:29;15.47;;;3.43;;
14817;SDS011;7500;57.698;11.986;2023-03-23T13:58:12;13.40;;;3.20;;
14817;SDS011;7500;57.698;11.986;2023-03-23T14:01:56;15.73;;;3.17;;
14817;SDS011;7500;57.698;11.986;2023-03-23T14:05:32;18.67;;;3.73;;
14817;SDS011;7500;57.698;11.986;2023-03-23T14:09:04;14.20;;;3.10;;
14817;SDS011;7500;57.698;11.986;2023-03-23T14:12:32;11.23;;;2.57;;
14817;SDS011;7500;57.698;11.986;2023-03-23T14:16:00;17.73;;;3.43;;
14817;SDS011;7500;57.698;11.986;2023-03-23T14:19:32;22.77;;;3.67;;
14817;SDS011;7500;57.698;11.986;2023-03-23T14:22:59;22.10;;;3.57;;
14817;SDS011;7500;57.698;11.986;2023-03-23T14:26:29;45.37;;;5.47;;
14817;SDS011;7500;57.698;11.986;2023-03-23T14:30:00;38.23;;;5.30;;
14817;SDS011;7500;57.698;11.986;2023-03-23T14:33:26;15.27;;;3.20;;
14817;SDS011;7500;57.698;11.986;2023-03-23T14:36:52;13.83;;;3.10;;
14817;SDS011;7500;57.698;11.986;2023-03-23T14:40:18;29.17;;;3.87;;
14817;SDS011;7500;57.698;11.986;2023-03-23T14:43:44;36.60;;;4.23;;
14817;SDS011;7500;57.698;11.986;2023-03-23T14:47:13;21.80;;;3.30;;
14817;SDS011;7500;57.698;11.986;2023-03-23T14:50:47;21.90;;;3.87;;
14817;SDS011;7500;57.698;11.986;2023-03-23T14:54:14;23.37;;;4.23;;
14817;SDS011;7500;57.698;11.986;2023-03-23T14:57:41;24.90;;;4.07;;
14817;SDS011;7500;57.698;11.986;2023-03-23T15:01:10;25.17;;;4.40;;
14817;SDS011;7500;57.698;11.986;2023-03-23T15:04:42;35.77;;;5.47;;
14817;SDS011;7500;57.698;11.986;2023-03-23T15:08:12;22.07;;;3.83;;
14817;SDS011;7500;57.698;11.986;2023-03-23T15:11:40;35.80;;;4.13;;
14817;SDS011;7500;57.698;11.986;2023-03-23T15:15:06;38.93;;;4.80;;
14817;SDS011;7500;57.698;11.986;2023-03-23T15:18:40;27.77;;;4.30;;
14817;SDS011;7500;57.698;11.986;2023-03-23T15:22:14;26.83;;;4.20;;
14817;SDS011;7500;57.698;11.986;2023-03-23T15:25:47;25.03;;;3.87;;
14817;SDS011;7500;57.698;11.986;2023-03-23T15:29:14;25.67;;;4.37;;
14817;SDS011;7500;57.698;11.986;2023-03-23T15:32:55;27.03;;;4.60;;
14817;SDS011;7500;57.698;11.986;2023-03-23T15:36:23;23.03;;;4.17;;
14817;SDS011;7500;57.698;11.986;2023-03-23T15:39:51;23.00;;;4.20;;
14817;SDS011;7500;57.698;11.986;2023-03-23T15:43:18;31.20;;;6.73;;
14817;SDS011;7500;57.698;11.986;2023-03-23T15:46:55;25.20;;;4.53;;
14817;SDS011;7500;57.698;11.986;2023-03-23T15:50:38;25.53;;;4.87;;
14817;SDS011;7500;57.698;11.986;2023-03-23T15:54:05;23.47;;;4.60;;
14817;SDS011;7500;57.698;11.986;2023-03-23T15:57:45;23.37;;;4.00;;
14817;SDS011;7500;57.698;11.986;2023-03-23T16:01:11;24.73;;;4.67;;
14817;SDS011;7500;57.698;11.986;2023-03-23T16:04:43;24.87;;;3.63;;
14817;SDS011;7500;57.698;11.986;2023-03-23T16:08:10;42.70;;;6.17;;
14817;SDS011;7500;57.698;11.986;2023-03-23T16:11:39;22.57;;;3.60;;
14817;SDS011;7500;57.698;11.986;2023-03-23T16:15:05;20.17;;;4.37;;
14817;SDS011;7500;57.698;11.986;2023-03-23T16:18:32;19.37;;;5.17;;
14817;SDS011;7500;57.698;11.986;2023-03-23T16:21:59;27.57;;;4.57;;
14817;SDS011;7500;57.698;11.986;2023-03-23T16:25:25;24.77;;;5.67;;
14817;SDS011;7500;57.698;11.986;2023-03-23T16:28:50;22.50;;;5.10;;
14817;SDS011;7500;57.698;11.986;2023-03-23T16:32:16;23.80;;;3.77;;
14817;SDS011;7500;57.698;11.986;2023-03-23T16:35:41;24.53;;;4.27;;
14817;SDS011;7500;57.698;11.986;2023-03-23T16:39:09;17.73;;;3.77;;
14817;SDS011;7500;57.698;11.986;2023-03-23T16:42:37;22.47;;;5.77;;
14817;SDS011;7500;57.698;11.986;2023-03-23T16:46:03;21.03;;;3.60;;
14817;SDS011;7500;57.698;11.986;2023-03-23T16:49:28;17.37;;;3.77;;
14817;SDS011;7500;57.698;11.986;2023-03-23T16:52:54;19.70;;;4.07;;
14817;SDS011;7500;57.698;11.986;2023-03-23T16:56:21;17.57;;;3.87;;
14817;SDS011;7500;57.698;11.986;2023-03-23T16:59:47;19.93;;;4.23;;
14817;SDS011;7500;57.698;11.986;2023-03-23T17:03:14;15.07;;;2.80;;
14817;SDS011;7500;57.698;11.986;2023-03-23T17:06:39;23.37;;;3.50;;
14817;SDS011;7500;57.698;11.986;2023-03-23T17:10:06;15.13;;;3.53;;
14817;SDS011;7500;57.698;11.986;2023-03-23T17:13:33;16.27;;;3.47;;
14817;SDS011;7500;57.698;11.986;2023-03-23T17:16:59;14.73;;;3.07;;
14817;SDS011;7500;57.698;11.986;2023-03-23T17:20:24;18.07;;;3.20;;
14817;SDS011;7500;57.698;11.986;2023-03-23T17:23:51;14.50;;;2.73;;
14817;SDS011;7500;57.698;11.986;2023-03-23T17:27:17;14.03;;;3.37;;
14817;SDS011;7500;57.698;11.986;2023-03-23T17:30:44;19.77;;;3.40;;
14817;SDS011;7500;57.698;11.986;2023-03-23T17:34:10;23.67;;;4.00;;
14817;SDS011;7500;57.698;11.986;2023-03-23T17:37:35;17.50;;;3.97;;
14817;SDS011;7500;57.698;11.986;2023-03-23T17:41:01;13.60;;;3.80;;
14817;SDS011;7500;57.698;11.986;2023-03-23T17:44:27;17.67;;;3.87;;
14817;SDS011;7500;57.698;11.986;2023-03-23T17:47:54;25.90;;;4.90;;
14817;SDS011;7500;57.698;11.986;2023-03-23T17:51:19;17.80;;;3.27;;
14817;SDS011;7500;57.698;11.986;2023-03-23T17:54:45;19.87;;;3.70;;
14817;SDS011;7500;57.698;11.986;2023-03-23T17:58:11;18.03;;;3.63;;
14817;SDS011;7500;57.698;11.986;2023-03-23T18:01:37;16.47;;;3.27;;
14817;SDS011;7500;57.698;11.986;2023-03-23T18:05:04;16.00;;;3.13;;
14817;SDS011;7500;57.698;11.986;2023-03-23T18:08:32;17.13;;;3.47;;
14817;SDS011;7500;57.698;11.986;2023-03-23T18:11:57;16.53;;;3.80;;
14817;SDS011;7500;57.698;11.986;2023-03-23T18:15:23;15.93;;;3.77;;
14817;SDS011;7500;57.698;11.986;2023-03-23T18:18:48;14.23;;;3.87;;
14817;SDS011;7500;57.698;11.986;2023-03-23T18:22:15;20.00;;;3.83;;
14817;SDS011;7500;57.698;11.986;2023-03-23T18:25:40;14.87;;;3.83;;
14817;SDS011;7500;57.698;11.986;2023-03-23T18:29:07;14.53;;;2.90;;
14817;SDS011;7500;57.698;11.986;2023-03-23T18:32:33;11.77;;;2.53;;
14817;SDS011;7500;57.698;11.986;2023-03-23T18:36:00;21.47;;;3.60;;
14817;SDS011;7500;57.698;11.986;2023-03-23T18:39:27;14.80;;;3.17;;
14817;SDS011;7500;57.698;11.986;2023-03-23T18:42:53;10.37;;;2.90;;
14817;SDS011;7500;57.698;11.986;2023-03-23T18:46:20;13.17;;;2.83;;
14817;SDS011;7500;57.698;11.986;2023-03-23T18:49:46;17.00;;;3.10;;
14817;SDS011;7500;57.698;11.986;2023-03-23T18:53:13;20.07;;;3.23;;
14817;SDS011;7500;57.698;11.986;2023-03-23T18:56:40;15.37;;;2.40;;
14817;SDS011;7500;57.698;11.986;2023-03-23T19:00:06;15.47;;;2.90;;
14817;SDS011;7500;57.698;11.986;2023-03-23T19:03:34;9.30;;;2.17;;
14817;SDS011;7500;57.698;11.986;2023-03-23T19:07:01;14.70;;;3.07;;
14817;SDS011;7500;57.698;11.986;2023-03-23T19:10:28;10.83;;;2.30;;
14817;SDS011;7500;57.698;11.986;2023-03-23T19:13:55;15.13;;;3.40;;
14817;SDS011;7500;57.698;11.986;2023-03-23T19:17:21;13.47;;;2.77;;
14817;SDS011;7500;57.698;11.986;2023-03-23T19:20:47;16.47;;;3.00;;
14817;SDS011;7500;57.698;11.986;2023-03-23T19:24:13;14.20;;;2.80;;
14817;SDS011;7500;57.698;11.986;2023-03-23T19:27:39;12.70;;;2.63;;
14817;SDS011;7500;57.698;11.986;2023-03-23T19:31:06;14.33;;;2.87;;
14817;SDS011;7500;57.698;11.986;2023-03-23T19:34:32;12.87;;;2.60;;
14817;SDS011;7500;57.698;11.986;2023-03-23T19:37:57;12.43;;;2.77;;
14817;SDS011;7500;57.698;11.986;2023-03-23T19:41:23;13.70;;;2.93;;
14817;SDS011;7500;57.698;11.986;2023-03-23T19:44:49;14.90;;;3.17;;
14817;SDS011;7500;57.698;11.986;2023-03-23T19:48:16;15.43;;;2.53;;
14817;SDS011;7500;57.698;11.986;2023-03-23T19:51:42;12.63;;;2.63;;
14817;SDS011;7500;57.698;11.986;2023-03-23T19:55:07;12.93;;;2.70;;
14817;SDS011;7500;57.698;11.986;2023-03-23T19:58:37;13.50;;;3.10;;
14817;SDS011;7500;57.698;11.986;2023-03-23T20:02:02;12.93;;;2.70;;
14817;SDS011;7500;57.698;11.986;2023-03-23T20:05:30;14.57;;;3.03;;
14817;SDS011;7500;57.698;11.986;2023-03-23T20:08:55;15.40;;;2.63;;
14817;SDS011;7500;57.698;11.986;2023-03-23T20:12:21;14.87;;;2.57;;
14817;SDS011;7500;57.698;11.986;2023-03-23T20:15:50;17.80;;;3.17;;
14817;SDS011;7500;57.698;11.986;2023-03-23T20:19:15;12.23;;;2.57;;
14817;SDS011;7500;57.698;11.986;2023-03-23T20:22:42;13.73;;;2.47;;
14817;SDS011;7500;57.698;11.986;2023-03-23T20:26:09;14.13;;;2.60;;
14817;SDS011;7500;57.698;11.986;2023-03-23T20:29:35;14.23;;;2.83;;
14817;SDS011;7500;57.698;11.986;2023-03-23T20:33:01;17.07;;;3.07;;
14817;SDS011;7500;57.698;11.986;2023-03-23T20:36:27;10.50;;;2.27;;
14817;SDS011;7500;57.698;11.986;2023-03-23T20:39:54;15.07;;;2.67;;
14817;SDS011;7500;57.698;11.986;2023-03-23T20:43:21;18.70;;;3.60;;
14817;SDS011;7500;57.698;11.986;2023-03-23T20:46:47;20.73;;;2.70;;